createdAt,value
2023-05-10T00:00:04.731Z,1000.00
2023-05-10T00:01:04.792Z,1000.00
2023-05-10T00:02:04.805Z,1000.00
2023-05-10T00:03:04.945Z,1000.00
2023-05-10T00:04:04.811Z,1000.00
2023-05-10T00:05:04.804Z,1000.00
2023-05-10T00:06:04.851Z,1000.00
2023-05-10T00:07:04.840Z,1000.00
2023-05-10T00:08:04.872Z,1000.00
2023-05-10T00:09:04.891Z,1000.00
2023-05-10T00:10:04.896Z,1000.00
2023-05-10T00:11:04.896Z,1000.00
2023-05-10T00:12:04.995Z,1000.00
2023-05-10T00:13:04.950Z,1000.00
2023-05-10T00:14:05.058Z,1000.00
2023-05-10T00:15:04.966Z,1000.00
2023-05-10T00:16:05.189Z,1000.00
2023-05-10T00:17:05.042Z,1000.00
2023-05-10T00:18:05.153Z,1000.00
2023-05-10T00:19:05.542Z,1000.00
2023-05-10T00:20:05.029Z,1000.00
2023-05-10T00:21:05.077Z,1000.00
2023-05-10T00:22:05.045Z,1000.00
2023-05-10T00:23:05.086Z,1000.00
2023-05-10T00:24:05.074Z,1000.00
2023-05-10T00:25:05.155Z,1000.00
2023-05-10T00:26:05.259Z,1000.00
2023-05-10T00:27:05.125Z,1000.00
2023-05-10T00:28:05.171Z,1000.00
2023-05-10T00:29:05.204Z,1000.00
2023-05-10T00:30:05.238Z,1000.00
2023-05-10T00:31:05.247Z,1000.00
2023-05-10T00:32:05.285Z,1000.00
2023-05-10T00:33:05.326Z,1000.00
2023-05-10T00:34:05.374Z,1000.00
2023-05-10T00:35:05.283Z,1000.00
2023-05-10T00:36:05.294Z,1000.00
2023-05-10T00:37:05.317Z,1000.00
2023-05-10T00:38:05.319Z,1000.00
2023-05-10T00:39:05.308Z,1000.00
2023-05-10T00:40:05.363Z,1000.00
2023-05-10T00:41:06.476Z,1000.00
2023-05-10T00:42:05.412Z,1000.00
2023-05-10T00:43:05.502Z,1000.00
2023-05-10T00:44:05.442Z,1000.00
2023-05-10T00:45:05.453Z,1000.00
2023-05-10T00:46:05.490Z,1000.00
2023-05-10T00:47:05.482Z,1000.00
2023-05-10T00:48:05.575Z,1000.00
2023-05-10T00:49:05.475Z,1000.00
2023-05-10T00:50:05.497Z,1000.00
2023-05-10T00:51:05.553Z,1000.00
2023-05-10T00:52:05.482Z,1000.00
2023-05-10T00:53:05.496Z,1000.00
2023-05-10T00:54:05.505Z,1000.00
2023-05-10T00:55:05.521Z,1000.00
2023-05-10T00:56:05.789Z,1000.00
2023-05-10T00:57:05.692Z,1000.00
2023-05-10T00:58:05.599Z,1000.00
2023-05-10T00:59:05.630Z,1000.00
2023-05-10T01:00:05.649Z,1000.00
2023-05-10T01:01:05.660Z,1000.00
2023-05-10T01:02:05.686Z,1000.00
2023-05-10T01:03:05.722Z,1000.00
2023-05-10T01:04:05.676Z,1000.00
2023-05-10T01:05:05.707Z,1000.00
2023-05-10T01:06:05.659Z,1000.00
2023-05-10T01:07:05.899Z,1000.00
2023-05-10T01:08:05.698Z,1000.00
2023-05-10T01:09:05.690Z,1000.00
2023-05-10T01:10:05.727Z,1000.00
2023-05-10T01:11:05.709Z,1000.00
2023-05-10T01:12:05.804Z,1000.00
2023-05-10T01:13:05.841Z,1000.00
2023-05-10T01:14:05.825Z,1000.00
2023-05-10T01:15:05.825Z,1000.00
2023-05-10T01:16:05.870Z,1000.00
2023-05-10T01:17:05.878Z,1000.00
2023-05-10T01:18:05.868Z,1000.00
2023-05-10T01:19:05.910Z,1000.00
2023-05-10T01:20:05.956Z,1000.00
2023-05-10T01:21:05.972Z,1000.00
2023-05-10T01:22:05.981Z,1000.00
2023-05-10T01:23:06.049Z,1000.00
2023-05-10T01:24:06.025Z,1000.00
2023-05-10T01:25:06.091Z,1000.00
2023-05-10T01:26:06.108Z,1000.00
2023-05-10T01:27:06.157Z,1000.00
2023-05-10T01:28:06.156Z,1000.00
2023-05-10T01:29:06.178Z,1000.00
2023-05-10T01:30:15.589Z,1000.00
2023-05-10T01:31:07.284Z,1000.00
2023-05-10T01:32:06.215Z,1000.00
2023-05-10T01:33:06.241Z,1000.00
2023-05-10T01:34:06.163Z,1000.00
2023-05-10T01:35:06.183Z,1000.00
2023-05-10T01:36:06.175Z,1000.00
2023-05-10T01:37:06.150Z,1000.00
2023-05-10T01:38:06.138Z,1000.00
2023-05-10T01:39:06.127Z,1000.00
2023-05-10T01:40:06.161Z,1000.00
2023-05-10T01:41:06.150Z,1000.00
2023-05-10T01:42:06.235Z,1000.00
2023-05-10T01:43:06.347Z,1000.00
2023-05-10T01:44:06.333Z,1000.00
2023-05-10T01:45:06.410Z,1000.00
2023-05-10T01:46:06.445Z,1000.00
2023-05-10T01:47:06.507Z,1000.00
2023-05-10T01:48:06.674Z,1000.00
2023-05-10T01:49:06.614Z,1000.00
2023-05-10T01:50:08.009Z,1000.00
2023-05-10T01:51:06.726Z,1000.00
2023-05-10T01:52:06.792Z,1000.00
2023-05-10T01:53:06.842Z,1000.00
2023-05-10T01:54:06.896Z,1000.00
2023-05-10T01:55:06.935Z,1000.00
2023-05-10T01:56:06.996Z,1000.00
2023-05-10T01:57:07.049Z,1000.00
2023-05-10T01:58:07.087Z,1000.00
2023-05-10T01:59:07.119Z,1000.00
2023-05-10T02:00:07.163Z,1000.00
2023-05-10T02:01:07.265Z,1000.00
2023-05-10T02:02:07.267Z,1000.00
2023-05-10T02:03:07.417Z,1000.00
2023-05-10T02:04:07.382Z,1000.00
2023-05-10T02:05:07.444Z,1000.00
2023-05-10T02:06:07.442Z,1000.00
2023-05-10T02:07:07.479Z,1000.00
2023-05-10T02:08:07.568Z,1000.00
2023-05-10T02:09:07.524Z,1000.00
2023-05-10T02:10:07.593Z,1000.00
2023-05-10T02:11:07.662Z,1000.00
2023-05-10T02:12:07.678Z,1000.00
2023-05-10T02:13:07.763Z,1000.00
2023-05-10T02:14:07.791Z,1000.00
2023-05-10T02:15:07.863Z,1000.00
2023-05-10T02:16:07.923Z,1000.00
2023-05-10T02:17:07.950Z,1000.00
2023-05-10T02:18:08.006Z,1000.00
2023-05-10T02:19:08.081Z,1000.00
2023-05-10T02:20:08.049Z,1000.00
2023-05-10T02:21:08.181Z,1000.00
2023-05-10T02:22:08.211Z,1000.00
2023-05-10T02:23:08.277Z,1000.00
2023-05-10T02:24:08.292Z,1000.00
2023-05-10T02:25:08.319Z,1000.00
2023-05-10T02:26:08.379Z,1000.00
2023-05-10T02:27:08.411Z,1000.00
2023-05-10T02:28:08.492Z,1000.00
2023-05-10T02:29:08.560Z,1000.00
2023-05-10T02:30:08.598Z,1000.00
2023-05-10T02:31:08.651Z,1000.00
2023-05-10T02:32:08.751Z,1000.00
2023-05-10T02:33:08.811Z,1000.00
2023-05-10T02:34:08.817Z,1000.00
2023-05-10T02:35:08.955Z,1000.00
2023-05-10T02:36:08.934Z,1000.00
2023-05-10T02:37:08.968Z,1000.00
2023-05-10T02:38:09.070Z,1000.00
2023-05-10T02:39:09.080Z,1000.00
2023-05-10T02:40:09.088Z,1000.00
2023-05-10T02:41:09.126Z,1000.00
2023-05-10T02:42:09.195Z,1000.00
2023-05-10T02:43:09.237Z,1000.00
2023-05-10T02:44:09.309Z,1000.00
2023-05-10T02:45:09.314Z,1000.00
2023-05-10T02:46:09.399Z,1000.00
2023-05-10T02:47:09.407Z,1000.00
2023-05-10T02:48:09.499Z,1000.00
2023-05-10T02:49:09.883Z,1000.00
2023-05-10T02:50:09.545Z,1000.00
2023-05-10T02:51:09.599Z,1000.00
2023-05-10T02:52:09.614Z,1000.00
2023-05-10T02:53:09.684Z,1000.00
2023-05-10T02:54:09.714Z,1000.00
2023-05-10T02:55:09.763Z,1000.00
2023-05-10T02:56:09.848Z,1000.00
2023-05-10T02:57:09.858Z,1000.00
2023-05-10T02:58:09.917Z,1000.00
2023-05-10T02:59:09.970Z,1000.00
2023-05-10T03:00:10.029Z,1000.00
2023-05-10T03:01:10.087Z,1000.00
2023-05-10T03:02:10.090Z,1000.00
2023-05-10T03:03:10.177Z,1000.00
2023-05-10T03:04:10.193Z,1000.00
2023-05-10T03:05:10.263Z,1000.00
2023-05-10T03:06:10.311Z,1000.00
2023-05-10T03:07:10.388Z,1000.00
2023-05-10T03:08:10.442Z,1000.00
2023-05-10T03:09:10.451Z,1000.00
2023-05-10T03:10:10.456Z,1000.00
2023-05-10T03:11:10.423Z,1000.00
2023-05-10T03:12:10.428Z,1000.00
2023-05-10T03:13:10.488Z,1000.00
2023-05-10T03:14:10.437Z,1000.00
2023-05-10T03:15:10.438Z,1000.00
2023-05-10T03:16:10.555Z,1000.00
2023-05-10T03:17:10.419Z,1000.00
2023-05-10T03:18:10.455Z,1000.00
2023-05-10T03:19:10.468Z,1000.00
2023-05-10T03:20:10.392Z,1000.00
2023-05-10T03:21:10.442Z,1000.00
2023-05-10T03:22:10.466Z,1000.00
2023-05-10T03:23:10.444Z,1000.00
2023-05-10T03:24:10.392Z,1000.00
2023-05-10T03:25:10.430Z,1000.00
2023-05-10T03:26:10.394Z,1000.00
2023-05-10T03:27:10.481Z,1000.00
2023-05-10T03:28:10.466Z,1000.00
2023-05-10T03:29:10.468Z,1000.00
2023-05-10T03:30:10.478Z,1000.00
2023-05-10T03:31:10.568Z,1000.00
2023-05-10T03:32:10.502Z,1000.00
2023-05-10T03:33:10.560Z,1000.00
2023-05-10T03:34:10.608Z,1000.00
2023-05-10T03:35:10.638Z,1000.00
2023-05-10T03:36:10.644Z,1000.00
2023-05-10T03:37:10.787Z,1000.00
2023-05-10T03:38:10.772Z,1000.00
2023-05-10T03:39:10.762Z,1000.00
2023-05-10T03:40:10.817Z,1000.00
2023-05-10T03:41:10.833Z,1000.00
2023-05-10T03:42:10.842Z,1000.00
2023-05-10T03:43:10.842Z,1000.00
2023-05-10T03:44:10.855Z,1000.00
2023-05-10T03:45:10.839Z,1000.00
2023-05-10T03:46:10.932Z,1000.00
2023-05-10T03:47:10.914Z,1000.00
2023-05-10T03:48:10.983Z,1000.00
2023-05-10T03:49:10.839Z,1000.00
2023-05-10T03:50:10.848Z,1000.00
2023-05-10T03:51:10.852Z,1000.00
2023-05-10T03:52:10.855Z,1000.00
2023-05-10T03:53:10.917Z,1000.00
2023-05-10T03:54:10.904Z,1000.00
2023-05-10T03:55:10.965Z,1000.00
2023-05-10T03:56:11.033Z,1000.00
2023-05-10T03:57:11.105Z,1000.00
2023-05-10T03:58:11.138Z,1000.00
2023-05-10T03:59:11.151Z,1000.00
2023-05-10T04:00:11.259Z,1000.00
2023-05-10T04:01:11.307Z,1000.00
2023-05-10T04:02:11.445Z,995.79
2023-05-10T04:03:11.486Z,976.62
2023-05-10T04:04:11.570Z,884.65
2023-05-10T04:05:11.549Z,1000.00
2023-05-10T04:06:11.634Z,1000.00
2023-05-10T04:07:11.681Z,1000.00
2023-05-10T04:08:11.775Z,1000.00
2023-05-10T04:09:11.785Z,1000.00
2023-05-10T04:10:11.877Z,994.33
2023-05-10T04:11:11.994Z,875.99
2023-05-10T04:12:11.998Z,745.98
2023-05-10T04:13:12.115Z,759.85
2023-05-10T04:14:12.636Z,869.42
2023-05-10T04:15:12.179Z,839.83
2023-05-10T04:16:12.247Z,841.46
2023-05-10T04:17:12.385Z,779.60
2023-05-10T04:18:12.349Z,810.47
2023-05-10T04:19:12.361Z,869.49
2023-05-10T04:20:12.407Z,902.63
2023-05-10T04:21:12.328Z,897.25
2023-05-10T04:22:12.393Z,884.67
2023-05-10T04:23:12.363Z,992.64
2023-05-10T04:24:13.438Z,1000.00
2023-05-10T04:26:31.668Z,0.50
2023-05-10T04:27:31.612Z,0.50
2023-05-10T04:28:31.639Z,0.50
2023-05-10T04:29:31.639Z,0.50
2023-05-10T04:30:31.626Z,0.50
2023-05-10T04:31:31.648Z,0.51
2023-05-10T04:32:31.592Z,0.50
2023-05-10T04:33:31.590Z,0.51
2023-05-10T04:34:31.604Z,0.50
2023-05-10T04:35:31.558Z,0.49
2023-05-10T04:36:31.574Z,0.50
2023-05-10T04:37:31.589Z,0.51
2023-05-10T04:38:31.604Z,0.56
2023-05-10T04:39:31.542Z,0.69
2023-05-10T04:40:31.552Z,0.79
2023-05-10T04:41:31.542Z,0.72
2023-05-10T04:42:31.519Z,0.56
2023-05-10T04:43:31.533Z,0.58
2023-05-10T04:44:31.500Z,0.53
2023-05-10T04:45:31.506Z,0.53
2023-05-10T04:46:31.542Z,0.55
2023-05-10T04:47:31.514Z,0.54
2023-05-10T04:48:31.533Z,0.57
2023-05-10T04:49:31.476Z,0.59
2023-05-10T04:50:31.481Z,0.67
2023-05-10T04:51:31.476Z,0.78
2023-05-10T04:52:31.475Z,0.84
2023-05-10T04:53:31.484Z,0.88
2023-05-10T04:54:31.462Z,0.86
2023-05-10T04:55:31.446Z,0.81
2023-05-10T04:56:31.452Z,0.77
2023-05-10T04:57:31.410Z,0.88
2023-05-10T04:58:31.427Z,1.08
2023-05-10T04:59:31.422Z,1.16
2023-05-10T05:01:59.003Z,0.50
2023-05-10T05:02:51.315Z,0.50
2023-05-10T05:03:51.406Z,0.50
2023-05-10T05:04:51.229Z,0.50
2023-05-10T05:05:51.276Z,0.50
2023-05-10T05:06:53.051Z,0.50
2023-05-10T05:07:51.192Z,0.48
2023-05-10T05:08:51.249Z,0.45
2023-05-10T05:09:51.204Z,0.50
2023-05-10T05:10:51.215Z,0.50
2023-05-10T05:11:51.155Z,0.50
2023-05-10T05:12:51.196Z,0.49
2023-05-10T05:13:51.175Z,0.52
2023-05-10T05:14:51.139Z,0.49
2023-05-10T05:15:51.157Z,0.50
2023-05-10T05:16:51.150Z,0.51
2023-05-10T05:17:51.208Z,0.50
2023-05-10T05:18:51.149Z,0.55
2023-05-10T05:19:51.110Z,0.54
2023-05-10T05:20:51.110Z,0.55
2023-05-10T05:21:51.180Z,0.70
2023-05-10T05:22:51.087Z,0.91
2023-05-10T05:23:51.187Z,0.93
2023-05-10T05:24:51.101Z,1.01
2023-05-10T05:25:51.113Z,1.05
2023-05-10T05:26:51.053Z,1.04
2023-05-10T05:27:51.126Z,1.17
2023-05-10T05:28:51.124Z,1.11
2023-05-10T05:29:51.028Z,1.02
2023-05-10T05:30:51.066Z,1.14
2023-05-10T05:31:51.922Z,1.16
2023-05-10T05:32:51.283Z,1.16
2023-05-10T05:33:51.633Z,1.17
2023-05-10T05:34:51.157Z,1.24
2023-05-10T05:35:51.167Z,1.36
2023-05-10T05:36:51.123Z,1.46
2023-05-10T05:37:51.086Z,1.66
2023-05-10T05:38:51.514Z,1.94
2023-05-10T05:39:51.211Z,2.14
2023-05-10T05:40:51.101Z,2.35
2023-05-10T05:41:51.209Z,2.48
2023-05-10T05:42:51.190Z,2.53
2023-05-10T05:43:51.549Z,2.86
2023-05-10T05:44:51.195Z,2.86
2023-05-10T05:47:18.275Z,0.50
2023-05-10T05:48:10.597Z,0.50
2023-05-10T05:49:10.848Z,0.50
2023-05-10T05:50:10.560Z,0.50
2023-05-10T05:51:10.590Z,0.50
2023-05-10T05:52:10.510Z,0.50
2023-05-10T05:53:10.516Z,0.52
2023-05-10T05:54:10.761Z,0.43
2023-05-10T05:55:10.483Z,0.49
2023-05-10T05:56:10.858Z,0.48
2023-05-10T05:57:10.473Z,0.44
2023-05-10T05:58:10.493Z,0.44
2023-05-10T05:59:10.756Z,0.34
2023-05-10T06:00:10.490Z,0.34
2023-05-10T06:01:10.489Z,0.34
2023-05-10T06:02:10.447Z,0.39
2023-05-10T06:03:10.517Z,0.49
2023-05-10T06:04:10.857Z,0.58
2023-05-10T06:05:10.405Z,0.61
2023-05-10T06:06:10.440Z,0.59
2023-05-10T06:07:10.405Z,0.65
2023-05-10T06:08:10.365Z,0.70
2023-05-10T06:09:10.768Z,0.63
2023-05-10T06:10:10.370Z,0.57
2023-05-10T06:11:10.378Z,0.64
2023-05-10T06:12:10.434Z,0.65
2023-05-10T06:13:10.434Z,0.80
2023-05-10T06:14:10.386Z,0.93
2023-05-10T06:15:10.397Z,1.01
2023-05-10T06:16:10.402Z,1.06
2023-05-10T06:17:10.410Z,0.94
2023-05-10T06:18:10.558Z,1.01
2023-05-10T06:19:10.528Z,1.21
2023-05-10T06:20:10.447Z,1.45
2023-05-10T06:21:10.436Z,1.60
2023-05-10T06:22:10.440Z,1.48
2023-05-10T06:23:10.475Z,1.49
2023-05-10T06:24:10.511Z,1.53
2023-05-10T06:25:10.501Z,1.73
2023-05-10T06:26:10.491Z,2.04
2023-05-10T06:27:10.529Z,2.00
2023-05-10T06:28:10.896Z,1.91
2023-05-10T06:29:10.558Z,1.93
2023-05-10T06:30:13.330Z,1.93
2023-05-10T06:31:10.532Z,1.90
2023-05-10T06:32:10.470Z,1.68
2023-05-10T06:33:10.502Z,1.73
2023-05-10T06:34:10.529Z,1.72
2023-05-10T06:35:10.490Z,1.65
2023-05-10T06:36:10.445Z,1.70
2023-05-10T06:37:10.489Z,1.66
2023-05-10T06:38:10.464Z,1.69
2023-05-10T06:39:10.471Z,1.88
2023-05-10T06:40:10.521Z,1.92
2023-05-10T06:41:10.408Z,2.10
2023-05-10T06:42:10.432Z,2.22
2023-05-10T06:43:10.523Z,2.36
2023-05-10T06:44:10.409Z,2.28
2023-05-10T06:45:10.408Z,2.39
2023-05-10T06:46:10.440Z,2.62
2023-05-10T06:47:17.993Z,2.35
2023-05-10T06:48:10.432Z,2.36
2023-05-10T06:49:10.377Z,2.39
2023-05-10T06:50:10.419Z,2.43
2023-05-10T06:51:10.351Z,2.56
2023-05-10T06:52:10.293Z,2.39
2023-05-10T06:53:10.355Z,2.37
2023-05-10T06:54:10.380Z,2.05
2023-05-10T06:55:10.304Z,2.07
2023-05-10T06:56:10.328Z,2.52
2023-05-10T06:57:23.295Z,2.70
2023-05-10T06:58:11.328Z,2.72
2023-05-10T06:59:10.334Z,2.77
2023-05-10T07:00:10.462Z,2.79
2023-05-10T07:01:10.451Z,2.18
2023-05-10T07:02:10.308Z,1.44
2023-05-10T07:03:10.437Z,1.42
2023-05-10T07:04:10.310Z,1.55
2023-05-10T07:05:10.281Z,1.40
2023-05-10T07:06:21.692Z,1.21
2023-05-10T07:07:11.385Z,1.22
2023-05-10T07:08:10.260Z,1.23
2023-05-10T07:09:10.190Z,1.25
2023-05-10T07:10:10.206Z,0.99
2023-05-10T07:11:10.216Z,0.67
2023-05-10T07:12:12.127Z,0.56
2023-05-10T07:13:10.278Z,0.48
2023-05-10T07:14:10.190Z,0.51
2023-05-10T07:15:10.214Z,0.55
2023-05-10T07:16:10.309Z,0.51
2023-05-10T07:17:10.329Z,0.51
2023-05-10T07:18:10.332Z,0.50
2023-05-10T07:19:10.170Z,0.51
2023-05-10T07:20:10.337Z,0.50
2023-05-10T07:21:10.200Z,0.47
2023-05-10T07:22:10.151Z,0.51
2023-05-10T07:23:10.154Z,0.55
2023-05-10T07:24:10.169Z,0.55
2023-05-10T07:25:10.157Z,0.54
2023-05-10T07:26:10.149Z,0.52
2023-05-10T07:27:10.118Z,0.52
2023-05-10T07:28:10.093Z,0.65
2023-05-10T07:29:10.107Z,0.63
2023-05-10T07:30:10.126Z,0.60
2023-05-10T07:31:10.185Z,0.50
2023-05-10T07:32:10.188Z,0.54
2023-05-10T07:33:10.125Z,0.50
2023-05-10T07:34:10.104Z,0.47
2023-05-10T07:35:10.070Z,0.56
2023-05-10T07:36:10.038Z,0.50
2023-05-10T07:37:10.067Z,0.49
2023-05-10T07:38:10.050Z,0.51
2023-05-10T07:39:11.426Z,0.55
2023-05-10T07:40:10.078Z,0.61
2023-05-10T07:41:10.009Z,0.66
2023-05-10T07:42:10.018Z,0.56
2023-05-10T07:43:10.014Z,0.61
2023-05-10T07:44:10.035Z,0.59
2023-05-10T07:45:10.017Z,0.58
2023-05-10T07:46:10.050Z,0.50
2023-05-10T07:47:09.956Z,0.42
2023-05-10T07:48:09.960Z,0.50
2023-05-10T07:49:09.969Z,0.58
2023-05-10T07:50:10.320Z,0.63
2023-05-10T07:51:09.953Z,0.75
2023-05-10T07:52:09.977Z,0.62
2023-05-10T07:53:09.956Z,0.55
2023-05-10T07:54:09.946Z,0.69
2023-05-10T07:55:10.062Z,0.67
2023-05-10T07:56:10.103Z,0.44
2023-05-10T07:57:10.122Z,0.48
2023-05-10T07:58:10.199Z,0.55
2023-05-10T07:59:12.559Z,0.57
2023-05-10T08:00:10.827Z,0.71
2023-05-10T08:01:10.520Z,0.60
2023-05-10T08:02:10.597Z,0.60
2023-05-10T08:03:10.842Z,0.70
2023-05-10T08:04:10.656Z,0.82
2023-05-10T08:05:10.828Z,1.07
2023-05-10T08:06:10.742Z,1.07
2023-05-10T08:07:10.839Z,0.90
2023-05-10T08:08:10.807Z,0.79
2023-05-10T08:09:10.884Z,0.82
2023-05-10T08:10:10.892Z,0.97
2023-05-10T08:11:10.967Z,1.18
2023-05-10T08:12:11.030Z,1.54
2023-05-10T08:13:11.021Z,1.63
2023-05-10T08:14:11.126Z,2.00
2023-05-10T08:15:11.331Z,2.41
2023-05-10T08:16:11.239Z,2.26
2023-05-10T08:17:11.473Z,2.44
2023-05-10T08:18:11.291Z,1.20
2023-05-10T08:19:11.252Z,1.31
2023-05-10T08:20:11.311Z,1.57
2023-05-10T08:21:11.291Z,2.08
2023-05-10T08:22:11.710Z,2.41
2023-05-10T08:23:11.292Z,2.51
2023-05-10T08:24:11.285Z,3.05
2023-05-10T08:25:11.789Z,3.09
2023-05-10T08:26:11.302Z,3.17
2023-05-10T08:27:11.317Z,3.44
2023-05-10T08:28:12.064Z,2.17
2023-05-10T08:29:11.332Z,2.02
2023-05-10T08:30:11.831Z,1.66
2023-05-10T08:31:11.457Z,1.44
2023-05-10T08:32:11.470Z,1.26
2023-05-10T08:33:11.571Z,1.71
2023-05-10T08:34:11.568Z,2.19
2023-05-10T08:35:11.812Z,1.92
2023-05-10T08:36:11.617Z,1.88
2023-05-10T08:37:11.675Z,1.48
2023-05-10T08:38:11.683Z,2.12
2023-05-10T08:39:22.954Z,2.10
2023-05-10T08:40:12.889Z,1.49
2023-05-10T08:41:11.688Z,1.47
2023-05-10T08:42:11.729Z,1.51
2023-05-10T08:43:11.729Z,1.95
2023-05-10T08:44:11.648Z,2.10
2023-05-10T08:45:11.680Z,0.96
2023-05-10T08:46:11.885Z,0.83
2023-05-10T08:47:11.665Z,0.91
2023-05-10T08:48:11.661Z,0.71
2023-05-10T08:49:11.645Z,0.70
2023-05-10T08:50:11.617Z,0.61
2023-05-10T08:51:11.803Z,0.68
2023-05-10T08:52:11.887Z,0.78
2023-05-10T08:53:11.690Z,0.99
2023-05-10T08:54:11.745Z,0.74
2023-05-10T08:55:11.944Z,0.58
2023-05-10T08:56:11.706Z,0.54
2023-05-10T08:57:11.765Z,0.62
2023-05-10T08:58:11.887Z,0.92
2023-05-10T08:59:11.890Z,1.11
2023-05-10T09:00:11.960Z,1.05
2023-05-10T09:01:12.394Z,1.01
2023-05-10T09:02:12.047Z,1.18
2023-05-10T09:03:12.099Z,1.04
2023-05-10T09:04:12.247Z,1.04
2023-05-10T09:05:12.244Z,1.03
2023-05-10T09:06:12.319Z,0.70
2023-05-10T09:07:12.286Z,0.73
2023-05-10T09:08:12.301Z,0.50
2023-05-10T09:09:12.343Z,0.44
2023-05-10T09:10:12.450Z,0.48
2023-05-10T09:11:12.454Z,0.61
2023-05-10T09:12:12.514Z,0.54
2023-05-10T09:13:12.537Z,0.51
2023-05-10T09:14:12.532Z,0.58
2023-05-10T09:15:12.562Z,0.51
2023-05-10T09:16:21.206Z,0.50
2023-05-10T09:17:13.685Z,0.50
2023-05-10T09:18:12.721Z,0.54
2023-05-10T09:19:12.710Z,0.59
2023-05-10T09:20:12.539Z,0.58
2023-05-10T09:21:12.578Z,0.49
2023-05-10T09:22:12.521Z,0.52
2023-05-10T09:23:12.541Z,0.65
2023-05-10T09:24:12.585Z,0.93
2023-05-10T09:25:12.536Z,1.15
2023-05-10T09:26:12.860Z,1.14
2023-05-10T09:27:12.529Z,0.94
2023-05-10T09:28:12.558Z,1.22
2023-05-10T09:29:13.084Z,1.85
2023-05-10T09:30:12.490Z,2.03
2023-05-10T09:31:12.886Z,2.01
2023-05-10T09:32:13.732Z,0.98
2023-05-10T09:33:12.481Z,0.74
2023-05-10T09:34:12.488Z,4.12
2023-05-10T09:35:12.580Z,104.69
2023-05-10T09:36:12.819Z,87.75
2023-05-10T09:37:12.551Z,152.85
2023-05-10T09:38:12.545Z,208.02
2023-05-10T09:39:12.869Z,168.38
2023-05-10T09:40:12.728Z,37.42
2023-05-10T09:41:12.827Z,44.48
2023-05-10T09:42:12.760Z,7.99
2023-05-10T09:43:12.835Z,15.81
2023-05-10T09:44:12.893Z,59.86
2023-05-10T09:45:12.939Z,34.88
2023-05-10T09:46:12.969Z,23.54
2023-05-10T09:47:13.043Z,346.23
2023-05-10T09:48:13.105Z,40.57
2023-05-10T09:49:13.144Z,14.66
2023-05-10T09:50:13.208Z,17.62
2023-05-10T09:51:13.340Z,4.37
2023-05-10T09:52:13.328Z,25.21
2023-05-10T09:53:13.272Z,85.69
2023-05-10T09:54:13.328Z,87.20
2023-05-10T09:55:13.468Z,14.73
2023-05-10T09:56:13.443Z,12.85
2023-05-10T09:57:13.456Z,12.42
2023-05-10T09:58:13.463Z,9.30
2023-05-10T09:59:13.535Z,4.40
2023-05-10T10:00:13.608Z,2.44
2023-05-10T10:01:13.932Z,6.29
2023-05-10T10:02:13.561Z,4.46
2023-05-10T10:03:13.709Z,5.28
2023-05-10T10:04:13.655Z,15.83
2023-05-10T10:05:14.003Z,28.37
2023-05-10T10:06:26.367Z,24.96
2023-05-10T10:07:14.761Z,5.69
2023-05-10T10:08:13.738Z,3.91
2023-05-10T10:09:14.211Z,4.97
2023-05-10T10:10:13.703Z,3.09
2023-05-10T10:11:14.092Z,3.20
2023-05-10T10:12:14.262Z,4.20
2023-05-10T10:13:13.706Z,7.32
2023-05-10T10:14:13.688Z,4.42
2023-05-10T10:15:16.463Z,5.76
2023-05-10T10:16:13.811Z,5.64
2023-05-10T10:17:13.745Z,5.11
2023-05-10T10:18:13.682Z,11.08
2023-05-10T10:19:13.666Z,15.49
2023-05-10T10:20:13.739Z,26.06
2023-05-10T10:21:13.760Z,112.75
2023-05-10T10:22:13.693Z,182.55
2023-05-10T10:23:15.155Z,140.76
2023-05-10T10:24:13.629Z,66.04
2023-05-10T10:25:13.743Z,54.37
2023-05-10T10:26:13.909Z,157.54
2023-05-10T10:27:13.594Z,150.27
2023-05-10T10:28:13.591Z,784.36
2023-05-10T10:29:13.925Z,657.20
2023-05-10T10:30:13.597Z,1000.00
2023-05-10T10:31:13.657Z,272.40
2023-05-10T10:32:13.682Z,13.65
2023-05-10T10:33:27.437Z,5.44
2023-05-10T10:34:14.603Z,5.44
2023-05-10T10:35:13.574Z,4.73
2023-05-10T10:36:13.536Z,4.71
2023-05-10T10:37:13.863Z,5.22
2023-05-10T10:38:13.556Z,3.38
2023-05-10T10:39:13.529Z,3.15
2023-05-10T10:40:13.621Z,2.00
2023-05-10T10:41:13.583Z,1.87
2023-05-10T10:42:13.837Z,1.87
2023-05-10T10:43:13.523Z,1.82
2023-05-10T10:44:13.502Z,1.71
2023-05-10T10:45:13.536Z,0.88
2023-05-10T10:46:13.542Z,0.47
2023-05-10T10:47:14.016Z,0.56
2023-05-10T10:48:13.614Z,0.61
2023-05-10T10:49:13.550Z,0.58
2023-05-10T10:50:13.631Z,0.62
2023-05-10T10:51:13.682Z,0.49
2023-05-10T10:52:13.772Z,0.65
2023-05-10T10:53:13.830Z,0.66
2023-05-10T10:54:13.711Z,0.63
2023-05-10T10:55:13.893Z,0.71
2023-05-10T10:56:13.821Z,0.74
2023-05-10T10:57:13.899Z,0.87
2023-05-10T10:58:13.925Z,1.05
2023-05-10T10:59:13.956Z,1.11
2023-05-10T11:00:14.031Z,1.27
2023-05-10T11:01:14.116Z,1.12
2023-05-10T11:02:14.135Z,0.85
2023-05-10T11:03:14.175Z,0.52
2023-05-10T11:04:14.288Z,0.58
2023-05-10T11:05:14.376Z,0.87
2023-05-10T11:06:14.295Z,0.63
2023-05-10T11:07:14.373Z,0.76
2023-05-10T11:08:14.423Z,0.85
2023-05-10T11:09:14.381Z,0.94
2023-05-10T11:10:14.564Z,0.87
2023-05-10T11:11:14.466Z,0.47
2023-05-10T11:12:14.861Z,0.45
2023-05-10T11:13:14.565Z,0.34
2023-05-10T11:14:14.602Z,0.35
2023-05-10T11:15:14.862Z,0.57
2023-05-10T11:16:14.750Z,0.97
2023-05-10T11:17:14.749Z,0.94
2023-05-10T11:18:14.699Z,1.23
2023-05-10T11:19:14.856Z,1.65
2023-05-10T11:20:14.963Z,2.38
2023-05-10T11:21:14.855Z,3.38
2023-05-10T11:22:14.870Z,2.69
2023-05-10T11:23:14.837Z,1.82
2023-05-10T11:24:14.897Z,1.96
2023-05-10T11:25:14.840Z,1.91
2023-05-10T11:26:14.858Z,1.63
2023-05-10T11:27:15.361Z,1.64
2023-05-10T11:28:14.940Z,1.24
2023-05-10T11:29:14.943Z,1.60
2023-05-10T11:30:15.346Z,2.21
2023-05-10T11:31:14.974Z,1.72
2023-05-10T11:32:15.357Z,1.53
2023-05-10T11:33:14.956Z,2.51
2023-05-10T11:34:14.955Z,3.24
2023-05-10T11:35:14.970Z,3.95
2023-05-10T11:36:14.988Z,2.84
2023-05-10T11:37:15.470Z,2.63
2023-05-10T11:38:14.985Z,1.61
2023-05-10T11:39:15.008Z,1.37
2023-05-10T11:40:15.251Z,2.21
2023-05-10T11:41:15.057Z,3.19
2023-05-10T11:42:15.061Z,4.45
2023-05-10T11:43:15.378Z,5.68
2023-05-10T11:44:15.097Z,3.96
2023-05-10T11:45:15.132Z,2.49
2023-05-10T11:46:15.186Z,3.21
2023-05-10T11:47:15.107Z,2.98
2023-05-10T11:48:15.178Z,3.15
2023-05-10T11:49:15.168Z,3.00
2023-05-10T11:50:15.425Z,3.25
2023-05-10T11:51:15.182Z,4.16
2023-05-10T11:52:15.202Z,2.73
2023-05-10T11:53:15.173Z,3.56
2023-05-10T11:54:15.206Z,3.14
2023-05-10T11:55:15.197Z,4.40
2023-05-10T11:56:15.236Z,5.26
2023-05-10T11:57:15.217Z,3.90
2023-05-10T11:58:15.334Z,2.92
2023-05-10T11:59:15.266Z,2.83
2023-05-10T12:00:15.553Z,3.16
2023-05-10T12:01:15.270Z,1.61
2023-05-10T12:02:15.440Z,1.41
2023-05-10T12:03:15.444Z,1.94
2023-05-10T12:04:15.449Z,3.19
2023-05-10T12:05:15.377Z,4.77
2023-05-10T12:06:15.378Z,5.20
2023-05-10T12:07:15.453Z,5.69
2023-05-10T12:08:15.481Z,7.04
2023-05-10T12:09:15.501Z,6.12
2023-05-10T12:10:15.980Z,7.56
2023-05-10T12:11:15.551Z,10.78
2023-05-10T12:12:15.612Z,8.98
2023-05-10T12:13:15.656Z,10.61
2023-05-10T12:14:15.684Z,9.28
2023-05-10T12:15:15.780Z,7.49
2023-05-10T12:16:15.838Z,5.38
2023-05-10T12:17:15.950Z,5.38
2023-05-10T12:18:16.075Z,5.32
2023-05-10T12:19:15.903Z,4.31
2023-05-10T12:20:16.180Z,2.51
2023-05-10T12:21:15.927Z,1.77
2023-05-10T12:22:15.945Z,1.65
2023-05-10T12:23:15.924Z,1.80
2023-05-10T12:24:15.952Z,2.15
2023-05-10T12:25:15.912Z,3.08
2023-05-10T12:26:15.923Z,4.59
2023-05-10T12:27:15.963Z,5.20
2023-05-10T12:28:15.984Z,4.87
2023-05-10T12:29:15.989Z,3.77
2023-05-10T12:30:16.209Z,4.46
2023-05-10T12:31:16.109Z,7.60
2023-05-10T12:32:16.114Z,10.41
2023-05-10T12:33:16.252Z,10.85
2023-05-10T12:34:16.483Z,8.09
2023-05-10T12:35:16.097Z,7.86
2023-05-10T12:36:16.148Z,8.61
2023-05-10T12:37:16.141Z,9.44
2023-05-10T12:38:16.139Z,10.83
2023-05-10T12:39:16.173Z,10.48
2023-05-10T12:40:16.488Z,8.38
2023-05-10T12:41:16.342Z,8.62
2023-05-10T12:42:16.344Z,7.64
2023-05-10T12:43:16.395Z,7.93
2023-05-10T12:44:16.476Z,8.01
2023-05-10T12:45:16.508Z,7.05
2023-05-10T12:46:16.658Z,7.28
2023-05-10T12:47:16.603Z,9.36
2023-05-10T12:48:16.638Z,9.99
2023-05-10T12:49:16.700Z,7.64
2023-05-10T12:50:16.943Z,6.29
2023-05-10T12:51:16.831Z,6.06
2023-05-10T12:52:16.824Z,5.33
2023-05-10T12:53:16.863Z,5.56
2023-05-10T12:54:16.963Z,3.07